createdAt,value
2019-03-16T00:01:25.374Z,13.40
2019-03-16T00:04:05.627Z,13.30
2019-03-16T00:06:45.816Z,13.50
2019-03-16T00:09:26.253Z,13.30
2019-03-16T00:12:06.168Z,13.40
2019-03-16T00:14:46.322Z,13.30
2019-03-16T00:17:26.333Z,13.30
2019-03-16T00:20:06.481Z,13.30
2019-03-16T00:22:46.681Z,13.20
2019-03-16T00:25:26.697Z,13.30
2019-03-16T00:28:06.806Z,13.10
2019-03-16T00:30:46.704Z,13.40
2019-03-16T00:33:26.741Z,13.30
2019-03-16T00:36:07.067Z,13.30
2019-03-16T00:38:47.686Z,13.20
2019-03-16T00:41:27.751Z,13.40
2019-03-16T00:44:07.777Z,13.40
2019-03-16T00:46:48.086Z,13.40
2019-03-16T00:49:28.495Z,13.40
2019-03-16T00:52:08.457Z,13.30
2019-03-16T00:54:48.651Z,13.50
2019-03-16T00:57:29.081Z,13.30
2019-03-16T01:00:09.001Z,13.40
2019-03-16T01:02:49.053Z,13.40
2019-03-16T01:05:29.324Z,13.30
2019-03-16T01:08:09.415Z,13.30
2019-03-16T01:10:49.718Z,13.10
2019-03-16T01:13:17.440Z,13.10
2019-03-16T01:16:04.498Z,13.30
2019-03-16T01:18:32.355Z,13.50
2019-03-16T01:21:19.470Z,13.40
2019-03-16T01:23:59.348Z,13.50
2019-03-16T01:26:39.474Z,13.40
2019-03-16T01:29:19.544Z,13.40
2019-03-16T01:32:00.199Z,13.30
2019-03-16T01:34:39.923Z,13.30
2019-03-16T01:37:20.062Z,13.30
2019-03-16T01:39:59.963Z,13.50
2019-03-16T01:42:39.947Z,13.50
2019-03-16T01:45:19.883Z,13.20
2019-03-16T01:48:00.431Z,13.30
2019-03-16T01:50:40.634Z,13.10
2019-03-16T01:53:20.788Z,13.20
2019-03-16T01:56:00.973Z,13.00
2019-03-16T01:58:41.249Z,13.40
2019-03-16T02:01:21.171Z,13.50
2019-03-16T02:04:01.663Z,13.10
2019-03-16T02:06:41.480Z,13.30
2019-03-16T02:09:21.621Z,13.50
2019-03-16T02:12:01.891Z,13.50
2019-03-16T02:20:53.601Z,13.50
2019-03-16T02:23:33.762Z,13.20
2019-03-16T02:26:13.961Z,13.10
2019-03-16T02:28:54.308Z,13.20
2019-03-16T02:31:34.379Z,13.20
2019-03-16T02:34:17.051Z,13.30
2019-03-16T02:36:56.770Z,13.30
2019-03-16T02:39:36.819Z,13.40
2019-03-16T02:42:16.875Z,13.20
2019-03-16T02:44:57.086Z,13.10
2019-03-16T02:47:37.083Z,13.20
2019-03-16T02:50:17.230Z,13.00
2019-03-16T02:52:57.550Z,13.30
2019-03-16T02:55:37.716Z,13.20
2019-03-16T02:58:05.386Z,13.40
2019-03-16T03:00:33.181Z,13.20
2019-03-16T03:03:00.932Z,13.10
2019-03-16T03:05:28.941Z,13.10
2019-03-16T03:07:56.632Z,13.20
2019-03-16T03:10:25.109Z,13.10
2019-03-16T03:12:52.791Z,13.20
2019-03-16T03:15:20.453Z,13.30
2019-03-16T03:17:48.174Z,13.20
2019-03-16T03:20:17.767Z,13.30
2019-03-16T03:22:45.440Z,13.10
2019-03-16T03:25:13.089Z,13.10
2019-03-16T03:27:40.768Z,12.90
2019-03-16T03:30:08.852Z,12.90
2019-03-16T03:32:36.618Z,13.00
2019-03-16T03:35:04.413Z,12.70
2019-03-16T03:37:51.480Z,12.80
2019-03-16T03:40:38.521Z,13.20
2019-03-16T03:43:18.142Z,13.20
2019-03-16T03:45:58.415Z,13.40
2019-03-16T03:48:38.671Z,13.40
2019-03-16T03:51:19.177Z,13.50
2019-03-16T03:57:10.403Z,12.90
2019-03-16T03:59:57.442Z,12.80
2019-03-16T04:02:35.926Z,12.70
2019-03-16T04:05:22.982Z,12.70
2019-03-16T04:08:01.298Z,12.90
2019-03-16T04:10:29.057Z,12.60
2019-03-16T04:13:16.138Z,12.40
2019-03-16T04:15:56.830Z,12.30
2019-03-16T04:21:38.160Z,12.20
2019-03-16T04:24:18.318Z,12.00
2019-03-16T04:27:14.530Z,12.30
2019-03-16T04:29:40.735Z,12.20
2019-03-16T04:32:20.866Z,12.20
2019-03-16T04:35:01.100Z,12.10
2019-03-16T04:37:41.385Z,12.00
2019-03-16T04:40:21.558Z,12.00
2019-03-16T04:42:49.251Z,11.80
2019-03-16T04:45:36.387Z,12.00
2019-03-16T04:48:16.294Z,11.90
2019-03-16T04:50:56.533Z,11.80
2019-03-16T04:53:36.614Z,12.00
2019-03-16T04:56:16.690Z,11.70
2019-03-16T04:58:56.993Z,11.80
2019-03-16T05:01:36.766Z,11.70
2019-03-16T05:07:16.263Z,11.60
2019-03-16T05:09:56.638Z,11.60
2019-03-16T05:12:36.717Z,11.50
2019-03-16T05:15:16.787Z,11.70
2019-03-16T05:17:57.032Z,11.50
2019-03-16T05:20:37.133Z,11.40
2019-03-16T05:23:17.643Z,11.40
2019-03-16T05:25:58.131Z,11.20
2019-03-16T05:34:38.693Z,11.50
2019-03-16T05:37:18.858Z,11.50
2019-03-16T05:39:59.858Z,11.30
2019-03-16T05:42:39.970Z,11.40
2019-03-16T05:45:20.308Z,11.30
2019-03-16T05:48:00.258Z,11.30
2019-03-16T05:50:40.566Z,11.30
2019-03-16T05:53:20.798Z,11.40
2019-03-16T05:56:00.669Z,11.70
2019-03-16T05:58:40.908Z,12.10
2019-03-16T06:01:20.959Z,12.10
2019-03-16T06:04:01.234Z,12.20
2019-03-16T06:06:41.446Z,12.20
2019-03-16T06:09:21.263Z,12.40
2019-03-16T06:12:01.502Z,12.10
2019-03-16T06:14:41.525Z,12.10
2019-03-16T06:17:21.852Z,12.10
2019-03-16T06:20:01.817Z,12.40
2019-03-16T06:22:42.028Z,12.20
2019-03-16T06:25:22.248Z,12.10
2019-03-16T06:28:02.143Z,12.10
2019-03-16T06:30:42.165Z,11.90
2019-03-16T06:33:22.598Z,12.00
2019-03-16T06:36:02.833Z,12.10
2019-03-16T06:38:43.056Z,12.40
2019-03-16T06:41:23.127Z,12.70
2019-03-16T06:44:03.647Z,12.90
2019-03-16T06:46:44.212Z,12.80
2019-03-16T06:49:24.069Z,12.60
2019-03-16T06:52:04.430Z,12.70
2019-03-16T06:54:44.655Z,12.80
2019-03-16T06:57:24.839Z,13.00
2019-03-16T07:00:06.590Z,12.60
2019-03-16T07:02:46.299Z,12.70
2019-03-16T07:05:37.519Z,12.80
2019-03-16T07:08:08.743Z,12.80
2019-03-16T07:10:48.657Z,12.80
2019-03-16T07:13:28.784Z,13.10
2019-03-16T07:16:09.220Z,13.20
2019-03-16T07:18:58.308Z,13.20
2019-03-16T07:21:31.447Z,13.50
2019-03-16T07:24:11.613Z,14.00
2019-03-16T07:26:51.858Z,14.00
2019-03-16T07:29:32.033Z,14.30
2019-03-16T07:32:12.053Z,14.50
2019-03-16T07:34:52.496Z,14.40
2019-03-16T07:37:32.298Z,13.90
2019-03-16T07:40:12.004Z,13.90
2019-03-16T07:42:39.805Z,13.50
2019-03-16T07:45:08.907Z,13.50
2019-03-16T07:47:50.292Z,13.40
2019-03-16T07:50:30.773Z,13.20
2019-03-16T07:53:10.805Z,13.20
2019-03-16T07:55:51.129Z,13.30
2019-03-16T07:58:31.266Z,13.20
2019-03-16T08:03:54.831Z,13.70
2019-03-16T08:06:34.498Z,13.80
2019-03-16T08:09:14.854Z,14.20
2019-03-16T08:11:54.959Z,14.10
2019-03-16T08:14:35.051Z,13.80
2019-03-16T08:17:02.959Z,14.10
2019-03-16T08:19:50.068Z,13.50
2019-03-16T08:22:37.199Z,13.30
2019-03-16T08:25:15.435Z,13.40
2019-03-16T08:28:02.518Z,13.40
2019-03-16T08:30:42.676Z,13.70
2019-03-16T08:36:21.189Z,15.30
2019-03-16T08:39:01.649Z,15.80
2019-03-16T08:41:41.523Z,16.30
2019-03-16T08:44:21.595Z,16.90
2019-03-16T08:47:01.807Z,17.50
2019-03-16T08:49:42.831Z,18.30
2019-03-16T08:52:23.329Z,18.50
2019-03-16T08:55:03.182Z,18.90
2019-03-16T08:57:43.347Z,19.40
2019-03-16T09:00:23.563Z,20.50
2019-03-16T09:03:03.742Z,20.70
2019-03-16T09:05:43.679Z,20.80
2019-03-16T09:08:23.799Z,20.80
2019-03-16T09:11:03.793Z,20.30
2019-03-16T09:13:43.931Z,19.70
2019-03-16T09:16:24.056Z,20.50
2019-03-16T09:19:04.346Z,20.70
2019-03-16T09:21:44.151Z,20.70
2019-03-16T09:24:24.174Z,20.80
2019-03-16T09:27:04.368Z,21.10
2019-03-16T09:29:44.673Z,21.60
2019-03-16T09:32:24.731Z,21.80
2019-03-16T09:35:05.086Z,22.50
2019-03-16T09:37:32.930Z,23.30
2019-03-16T09:40:20.054Z,22.60
2019-03-16T09:43:07.266Z,22.30
2019-03-16T09:45:47.395Z,23.10
2019-03-16T09:48:27.444Z,22.80
2019-03-16T09:51:07.756Z,23.10
2019-03-16T09:53:47.618Z,22.80
2019-03-16T09:56:27.799Z,22.60
2019-03-16T09:59:07.972Z,22.50
2019-03-16T10:01:48.364Z,22.20
2019-03-16T10:04:28.628Z,21.80
2019-03-16T10:07:08.753Z,21.80
2019-03-16T10:09:48.855Z,22.60
2019-03-16T10:12:29.162Z,22.40
2019-03-16T10:15:09.415Z,22.60
2019-03-16T10:17:49.726Z,22.30
2019-03-16T10:20:29.675Z,22.10
2019-03-16T10:23:09.836Z,22.50
2019-03-16T10:25:50.032Z,22.80
2019-03-16T10:28:30.087Z,23.30
2019-03-16T10:31:10.181Z,24.00
2019-03-16T10:33:50.593Z,24.50
2019-03-16T10:36:31.360Z,24.50
2019-03-16T10:39:11.506Z,24.70
2019-03-16T10:41:51.589Z,24.10
2019-03-16T10:44:33.183Z,24.20
2019-03-16T10:47:12.763Z,24.70
2019-03-16T10:49:53.029Z,25.20
2019-03-16T10:52:33.342Z,25.80
2019-03-16T10:55:13.698Z,26.00
2019-03-16T10:57:53.557Z,26.40
2019-03-16T11:00:33.650Z,26.70
2019-03-16T11:03:13.964Z,26.90
2019-03-16T11:05:53.731Z,27.10
2019-03-16T11:08:33.799Z,27.10
2019-03-16T11:11:13.955Z,27.60
2019-03-16T11:13:54.209Z,28.00
2019-03-16T11:16:34.290Z,28.00
2019-03-16T11:19:14.199Z,27.70
2019-03-16T11:21:54.325Z,27.80
2019-03-16T11:24:34.423Z,28.20
2019-03-16T11:27:17.044Z,28.70
2019-03-16T11:29:57.453Z,29.20
2019-03-16T11:32:37.684Z,29.90
2019-03-16T11:35:17.645Z,30.20
2019-03-16T11:37:45.522Z,30.60
2019-03-16T11:40:13.882Z,30.90
2019-03-16T11:42:41.677Z,31.20
2019-03-16T11:45:10.532Z,31.40
2019-03-16T11:47:38.307Z,31.60
2019-03-16T11:50:06.549Z,31.90
2019-03-16T11:52:34.418Z,32.30
2019-03-16T11:55:02.294Z,32.60
2019-03-16T11:57:29.990Z,32.90
2019-03-16T11:59:57.718Z,33.20
2019-03-16T12:02:25.578Z,33.40
2019-03-16T12:04:53.275Z,33.50
2019-03-16T12:07:21.148Z,33.30
2019-03-16T12:09:48.911Z,33.40
2019-03-16T12:12:16.594Z,33.50
2019-03-16T12:14:44.622Z,33.80
2019-03-16T12:17:12.273Z,33.80
2019-03-16T12:19:39.912Z,33.90
2019-03-16T12:22:07.678Z,34.00
2019-03-16T12:24:35.458Z,34.30
2019-03-16T12:27:03.461Z,34.50
2019-03-16T12:29:34.172Z,34.50
2019-03-16T12:32:00.749Z,34.60
2019-03-16T12:34:28.543Z,34.60
2019-03-16T12:36:56.330Z,35.00
2019-03-16T12:39:24.038Z,35.30
2019-03-16T12:41:51.806Z,35.60
2019-03-16T12:44:19.427Z,35.80
2019-03-16T12:46:47.165Z,35.90
2019-03-16T12:49:14.962Z,36.00
2019-03-16T12:51:42.791Z,36.00
2019-03-16T12:54:29.884Z,36.00
2019-03-16T12:57:16.981Z,35.90
2019-03-16T12:59:57.088Z,36.00
2019-03-16T13:02:37.242Z,36.10
2019-03-16T13:05:17.426Z,36.20
2019-03-16T13:07:57.967Z,36.40
2019-03-16T13:10:38.079Z,36.60
2019-03-16T13:13:05.897Z,36.60
2019-03-16T13:15:52.971Z,36.80
2019-03-16T13:18:40.041Z,36.80
2019-03-16T13:21:07.812Z,37.00
2019-03-16T13:23:54.895Z,37.10
2019-03-16T13:26:34.472Z,37.10
2019-03-16T13:29:14.815Z,37.40
2019-03-16T13:31:55.238Z,37.60
2019-03-16T13:34:35.297Z,37.60
2019-03-16T13:37:15.583Z,37.60
2019-03-16T13:39:55.450Z,37.70
2019-03-16T13:42:35.631Z,37.80
2019-03-16T13:45:16.463Z,38.00
2019-03-16T13:47:57.046Z,38.10
2019-03-16T13:50:37.861Z,38.20
2019-03-16T13:53:19.016Z,38.10
2019-03-16T13:56:00.167Z,38.10
2019-03-16T13:58:41.387Z,38.10
2019-03-16T14:01:21.822Z,38.10
2019-03-16T14:04:03.035Z,38.10
2019-03-16T14:06:43.444Z,37.90
2019-03-16T14:09:23.378Z,37.90
2019-03-16T14:12:03.356Z,37.80
2019-03-16T14:14:43.562Z,37.70
2019-03-16T14:17:23.654Z,37.60
2019-03-16T14:20:03.906Z,37.60
2019-03-16T14:22:43.879Z,37.70
2019-03-16T14:25:27.062Z,37.90
2019-03-16T14:28:06.930Z,37.90
2019-03-16T14:30:46.953Z,37.90
2019-03-16T14:33:27.042Z,37.90
2019-03-16T14:36:07.405Z,37.90
2019-03-16T14:38:47.510Z,38.00
2019-03-16T14:41:15.281Z,38.10
2019-03-16T14:44:02.347Z,38.10
2019-03-16T14:46:42.697Z,38.00
2019-03-16T14:49:22.866Z,37.60
2019-03-16T14:52:03.377Z,37.30
2019-03-16T14:54:45.771Z,37.10
2019-03-16T14:57:25.644Z,37.00
2019-03-16T15:00:05.881Z,36.80
2019-03-16T15:02:46.750Z,36.60
2019-03-16T15:05:27.057Z,36.50
2019-03-16T15:08:07.139Z,36.50
2019-03-16T15:10:47.479Z,36.50
2019-03-16T15:13:27.258Z,36.60
2019-03-16T15:16:08.009Z,36.40
2019-03-16T15:18:47.650Z,36.20
2019-03-16T15:21:27.655Z,36.00
2019-03-16T15:24:07.757Z,36.00
2019-03-16T15:26:47.880Z,35.90
2019-03-16T15:29:27.926Z,35.70
2019-03-16T15:32:08.004Z,35.60
2019-03-16T15:34:48.531Z,35.30
2019-03-16T15:37:28.175Z,35.00
2019-03-16T15:40:08.227Z,34.70
2019-03-16T15:42:48.511Z,34.60
2019-03-16T15:45:28.795Z,34.50
2019-03-16T15:48:08.887Z,34.30
2019-03-16T15:50:49.137Z,34.20
2019-03-16T15:53:29.591Z,34.00
2019-03-16T15:56:18.772Z,33.80
2019-03-16T15:58:58.671Z,33.60
2019-03-16T16:01:40.736Z,33.30
2019-03-16T16:04:08.621Z,32.90
2019-03-16T16:06:55.675Z,32.50
2019-03-16T16:09:36.028Z,32.20
2019-03-16T16:12:15.960Z,31.70
2019-03-16T16:14:56.011Z,31.30
2019-03-16T16:17:36.402Z,30.80
2019-03-16T16:20:17.287Z,30.30
2019-03-16T16:22:56.979Z,29.60
2019-03-16T16:25:37.115Z,29.20
2019-03-16T16:28:17.143Z,28.70
2019-03-16T16:30:57.285Z,28.30
2019-03-16T16:33:37.438Z,27.80
2019-03-16T16:36:17.328Z,27.50
2019-03-16T16:38:57.527Z,27.00
2019-03-16T16:41:37.711Z,26.70
2019-03-16T16:44:17.654Z,26.50
2019-03-16T16:46:57.804Z,26.00
2019-03-16T16:49:38.142Z,25.80
2019-03-16T16:52:18.126Z,25.40
2019-03-16T16:54:58.453Z,25.20
2019-03-16T16:57:38.236Z,24.80
2019-03-16T17:00:19.293Z,24.30
2019-03-16T17:02:59.600Z,23.90
2019-03-16T17:05:44.437Z,23.50
2019-03-16T17:08:23.183Z,23.30
2019-03-16T17:11:03.025Z,22.80
2019-03-16T17:13:43.451Z,22.50
2019-03-16T17:16:23.531Z,22.10
2019-03-16T17:19:05.009Z,21.90
2019-03-16T17:21:45.583Z,21.70
2019-03-16T17:24:25.822Z,21.60
2019-03-16T17:27:06.100Z,21.40
2019-03-16T17:29:46.205Z,21.20
2019-03-16T17:35:08.686Z,20.40
2019-03-16T17:37:48.729Z,20.30
2019-03-16T17:40:28.748Z,19.90
2019-03-16T17:43:08.957Z,20.00
2019-03-16T17:45:49.061Z,19.80
2019-03-16T17:48:29.880Z,19.40
2019-03-16T17:51:10.559Z,19.30
2019-03-16T17:53:51.368Z,19.10
2019-03-16T17:56:31.156Z,18.90
2019-03-16T17:59:11.222Z,18.70
2019-03-16T18:01:54.828Z,18.80
2019-03-16T18:04:33.656Z,18.40
2019-03-16T18:07:14.161Z,18.30
2019-03-16T18:09:54.372Z,18.20
2019-03-16T18:12:35.753Z,18.20
2019-03-16T18:15:17.852Z,17.90
2019-03-16T18:17:57.954Z,17.80
2019-03-16T18:20:26.110Z,17.70
2019-03-16T18:23:13.494Z,17.50
2019-03-16T18:26:00.767Z,17.40
2019-03-16T18:28:40.867Z,17.10
2019-03-16T18:31:30.049Z,16.90
2019-03-16T18:34:17.202Z,16.70
2019-03-16T18:37:00.487Z,16.70
2019-03-16T18:39:40.523Z,16.40
2019-03-16T18:42:08.650Z,16.50
2019-03-16T18:44:56.306Z,16.20
2019-03-16T18:47:55.453Z,16.00
2019-03-16T18:50:42.696Z,15.90
2019-03-16T18:53:22.339Z,16.00
2019-03-16T18:55:50.689Z,15.70
2019-03-16T18:58:37.109Z,15.60
2019-03-16T19:01:12.863Z,15.60
2019-03-16T19:03:52.932Z,15.40
2019-03-16T19:06:33.096Z,15.40
2019-03-16T19:09:13.165Z,15.30
2019-03-16T19:11:52.757Z,15.30
2019-03-16T19:14:32.823Z,15.40
2019-03-16T19:17:13.125Z,15.10
2019-03-16T19:19:53.116Z,15.00
2019-03-16T19:22:33.693Z,14.90
2019-03-16T19:25:13.423Z,14.80
2019-03-16T19:27:53.660Z,14.90
2019-03-16T19:30:34.110Z,14.90
2019-03-16T19:33:14.052Z,15.10
2019-03-16T19:35:54.283Z,14.90
2019-03-16T19:38:34.597Z,14.90
2019-03-16T19:41:14.739Z,14.70
2019-03-16T19:43:54.968Z,14.80
2019-03-16T19:46:35.034Z,14.80
2019-03-16T19:49:15.155Z,14.70
2019-03-16T19:51:55.120Z,14.60
2019-03-16T19:54:35.210Z,14.50
2019-03-16T19:57:16.377Z,14.40
2019-03-16T20:02:55.516Z,14.40
2019-03-16T20:05:36.935Z,14.40
2019-03-16T20:08:16.854Z,14.00
2019-03-16T20:11:05.828Z,14.00
2019-03-16T20:13:26.618Z,13.90
2019-03-16T20:16:14.032Z,13.90
2019-03-16T20:18:41.870Z,13.70
2019-03-16T20:21:48.388Z,13.60
2019-03-16T20:24:28.560Z,13.60
2019-03-16T20:27:09.331Z,13.20
2019-03-16T20:29:49.895Z,13.10
2019-03-16T20:32:30.197Z,13.10
2019-03-16T20:35:10.524Z,13.00
2019-03-16T20:37:50.526Z,12.80
2019-03-16T20:40:30.766Z,12.90
2019-03-16T20:43:10.738Z,12.80
2019-03-16T20:45:51.125Z,12.80
2019-03-16T20:48:31.216Z,12.70
2019-03-16T20:51:11.901Z,12.60
2019-03-16T20:53:52.268Z,12.60
2019-03-16T20:56:32.423Z,12.50
2019-03-16T20:59:12.369Z,12.50
2019-03-16T21:01:52.590Z,12.10
2019-03-16T21:04:32.693Z,12.30
2019-03-16T21:07:12.885Z,12.20
2019-03-16T21:09:40.939Z,12.30
2019-03-16T21:12:28.435Z,12.20
2019-03-16T21:15:15.515Z,12.30
2019-03-16T21:20:56.881Z,12.10
2019-03-16T21:23:37.059Z,12.10
2019-03-16T21:26:17.142Z,12.00
2019-03-16T21:28:57.158Z,12.10
2019-03-16T21:31:37.350Z,12.00
2019-03-16T21:34:05.397Z,12.00
2019-03-16T21:36:52.457Z,12.00
2019-03-16T21:39:39.578Z,12.00
2019-03-16T21:42:19.673Z,11.90
2019-03-16T21:45:00.110Z,11.90
2019-03-16T21:47:40.335Z,12.10
2019-03-16T21:50:20.204Z,11.90
2019-03-16T21:53:00.308Z,11.70
2019-03-16T21:55:40.685Z,11.60
2019-03-16T21:58:20.377Z,11.60
2019-03-16T22:01:00.687Z,11.50
2019-03-16T22:03:42.035Z,11.50
2019-03-16T22:06:10.037Z,11.30
2019-03-16T22:08:57.121Z,11.30
2019-03-16T22:11:44.193Z,11.20
2019-03-16T22:14:24.295Z,11.20
2019-03-16T22:17:04.677Z,11.20
2019-03-16T22:19:44.827Z,11.10
2019-03-16T22:22:12.433Z,10.90
2019-03-16T22:24:59.467Z,10.90
2019-03-16T22:27:46.681Z,10.90
2019-03-16T22:30:26.365Z,10.80
2019-03-16T22:33:06.559Z,10.90
2019-03-16T22:35:46.477Z,11.10
2019-03-16T22:38:26.801Z,10.80
2019-03-16T22:41:06.877Z,10.80
2019-03-16T22:43:47.093Z,10.80
2019-03-16T22:46:27.029Z,10.70
2019-03-16T22:49:07.138Z,10.70
2019-03-16T22:51:47.217Z,10.50
2019-03-16T22:54:27.252Z,10.70
2019-03-16T22:57:07.417Z,10.70
2019-03-16T22:59:47.659Z,10.60
2019-03-16T23:02:15.319Z,10.60
2019-03-16T23:07:57.685Z,10.40
2019-03-16T23:13:39.159Z,10.30
2019-03-16T23:16:19.498Z,10.30
2019-03-16T23:18:59.380Z,10.10
2019-03-16T23:21:39.514Z,10.20
2019-03-16T23:24:19.525Z,10.30
2019-03-16T23:26:59.801Z,10.30
2019-03-16T23:29:39.872Z,10.30
2019-03-16T23:32:19.805Z,10.30
2019-03-16T23:34:59.878Z,10.20
2019-03-16T23:37:40.667Z,10.40
2019-03-16T23:40:21.353Z,10.20
2019-03-16T23:46:00.390Z,10.00
2019-03-16T23:48:40.825Z,10.00
2019-03-16T23:51:22.738Z,9.90
2019-03-16T23:54:02.902Z,9.80
2019-03-16T23:56:43.130Z,9.60
2019-03-16T23:59:23.158Z,9.70
